sensor_id;sensor_type;location;lat;lon;timestamp;temperature;humidity
3067;DHT22;1544;48.834;9.194;2023-05-10T00:01:48;15.70;80.20
3067;DHT22;1544;48.834;9.194;2023-05-10T00:04:24;15.50;81.50
3067;DHT22;1544;48.834;9.194;2023-05-10T00:07:02;15.30;82.30
3067;DHT22;1544;48.834;9.194;2023-05-10T00:09:38;15.20;83.90
3067;DHT22;1544;48.834;9.194;2023-05-10T00:12:15;15.10;84.10
3067;DHT22;1544;48.834;9.194;2023-05-10T00:14:51;14.90;84.60
3067;DHT22;1544;48.834;9.194;2023-05-10T00:17:27;14.80;86.50
3067;DHT22;1544;48.834;9.194;2023-05-10T00:20:03;14.70;86.90
3067;DHT22;1544;48.834;9.194;2023-05-10T00:22:40;14.50;86.90
3067;DHT22;1544;48.834;9.194;2023-05-10T00:25:16;14.50;88.00
3067;DHT22;1544;48.834;9.194;2023-05-10T00:27:52;14.40;88.50
3067;DHT22;1544;48.834;9.194;2023-05-10T00:30:30;14.30;88.70
3067;DHT22;1544;48.834;9.194;2023-05-10T00:33:06;14.30;88.50
3067;DHT22;1544;48.834;9.194;2023-05-10T00:35:42;14.30;86.90
3067;DHT22;1544;48.834;9.194;2023-05-10T00:38:18;14.20;86.50
3067;DHT22;1544;48.834;9.194;2023-05-10T00:40:54;14.20;86.80
3067;DHT22;1544;48.834;9.194;2023-05-10T00:43:36;14.20;85.60
3067;DHT22;1544;48.834;9.194;2023-05-10T00:46:13;14.10;84.90
3067;DHT22;1544;48.834;9.194;2023-05-10T00:48:50;14.10;85.00
3067;DHT22;1544;48.834;9.194;2023-05-10T00:51:26;14.00;85.30
3067;DHT22;1544;48.834;9.194;2023-05-10T00:54:02;14.00;85.40
3067;DHT22;1544;48.834;9.194;2023-05-10T00:56:38;14.00;84.40
3067;DHT22;1544;48.834;9.194;2023-05-10T00:59:16;14.00;83.90
3067;DHT22;1544;48.834;9.194;2023-05-10T01:01:53;14.00;84.20
3067;DHT22;1544;48.834;9.194;2023-05-10T01:04:29;13.90;83.30
3067;DHT22;1544;48.834;9.194;2023-05-10T01:07:06;13.90;83.10
3067;DHT22;1544;48.834;9.194;2023-05-10T01:09:42;13.90;83.90
3067;DHT22;1544;48.834;9.194;2023-05-10T01:12:19;13.90;83.30
3067;DHT22;1544;48.834;9.194;2023-05-10T01:14:57;13.80;83.20
3067;DHT22;1544;48.834;9.194;2023-05-10T01:17:34;13.80;81.50
3067;DHT22;1544;48.834;9.194;2023-05-10T01:20:11;13.80;81.20
3067;DHT22;1544;48.834;9.194;2023-05-10T01:23:12;13.80;79.50
3067;DHT22;1544;48.834;9.194;2023-05-10T01:26:17;13.80;79.00
3067;DHT22;1544;48.834;9.194;2023-05-10T01:29:14;13.80;78.50
3067;DHT22;1544;48.834;9.194;2023-05-10T01:32:26;13.80;78.90
3067;DHT22;1544;48.834;9.194;2023-05-10T01:35:14;13.90;78.60
3067;DHT22;1544;48.834;9.194;2023-05-10T01:38:04;13.90;79.00
3067;DHT22;1544;48.834;9.194;2023-05-10T01:41:01;13.90;79.10
3067;DHT22;1544;48.834;9.194;2023-05-10T01:47:11;13.90;79.50
3067;DHT22;1544;48.834;9.194;2023-05-10T01:49:53;13.90;79.30
3067;DHT22;1544;48.834;9.194;2023-05-10T01:52:33;13.90;79.10
3067;DHT22;1544;48.834;9.194;2023-05-10T01:55:15;13.90;79.00
3067;DHT22;1544;48.834;9.194;2023-05-10T01:57:59;13.90;78.70
3067;DHT22;1544;48.834;9.194;2023-05-10T02:00:42;13.90;79.20
3067;DHT22;1544;48.834;9.194;2023-05-10T02:03:23;13.90;79.50
3067;DHT22;1544;48.834;9.194;2023-05-10T02:06:00;14.00;79.40
3067;DHT22;1544;48.834;9.194;2023-05-10T02:08:36;14.00;79.50
3067;DHT22;1544;48.834;9.194;2023-05-10T02:11:13;14.00;78.90
3067;DHT22;1544;48.834;9.194;2023-05-10T02:13:51;14.00;79.00
3067;DHT22;1544;48.834;9.194;2023-05-10T02:16:27;14.00;79.10
3067;DHT22;1544;48.834;9.194;2023-05-10T02:19:09;14.00;78.80
3067;DHT22;1544;48.834;9.194;2023-05-10T02:21:46;14.10;78.60
3067;DHT22;1544;48.834;9.194;2023-05-10T02:24:24;14.10;78.30
3067;DHT22;1544;48.834;9.194;2023-05-10T02:27:02;14.00;78.10
3067;DHT22;1544;48.834;9.194;2023-05-10T02:29:40;14.00;78.80
3067;DHT22;1544;48.834;9.194;2023-05-10T02:32:17;14.00;79.10
3067;DHT22;1544;48.834;9.194;2023-05-10T02:34:54;14.00;79.00
3067;DHT22;1544;48.834;9.194;2023-05-10T02:37:31;14.00;78.60
3067;DHT22;1544;48.834;9.194;2023-05-10T02:40:09;14.00;78.00
3067;DHT22;1544;48.834;9.194;2023-05-10T02:42:47;14.10;77.60
3067;DHT22;1544;48.834;9.194;2023-05-10T02:45:27;14.10;77.80
3067;DHT22;1544;48.834;9.194;2023-05-10T02:48:04;14.10;77.40
3067;DHT22;1544;48.834;9.194;2023-05-10T02:50:44;14.20;77.00
3067;DHT22;1544;48.834;9.194;2023-05-10T02:53:31;14.20;76.70
3067;DHT22;1544;48.834;9.194;2023-05-10T02:56:23;14.10;76.60
3067;DHT22;1544;48.834;9.194;2023-05-10T02:59:01;14.10;77.10
3067;DHT22;1544;48.834;9.194;2023-05-10T03:01:37;14.10;77.30
3067;DHT22;1544;48.834;9.194;2023-05-10T03:04:15;14.10;76.80
3067;DHT22;1544;48.834;9.194;2023-05-10T03:06:51;14.10;76.60
3067;DHT22;1544;48.834;9.194;2023-05-10T03:09:27;14.20;76.50
3067;DHT22;1544;48.834;9.194;2023-05-10T03:12:15;14.20;75.60
3067;DHT22;1544;48.834;9.194;2023-05-10T03:19:01;14.10;76.40
3067;DHT22;1544;48.834;9.194;2023-05-10T03:21:49;14.20;76.10
3067;DHT22;1544;48.834;9.194;2023-05-10T03:24:28;14.20;75.90
3067;DHT22;1544;48.834;9.194;2023-05-10T03:27:07;14.20;76.20
3067;DHT22;1544;48.834;9.194;2023-05-10T03:29:44;14.30;76.70
3067;DHT22;1544;48.834;9.194;2023-05-10T03:32:22;14.30;76.50
3067;DHT22;1544;48.834;9.194;2023-05-10T03:34:58;14.30;76.80
3067;DHT22;1544;48.834;9.194;2023-05-10T03:37:35;14.30;76.80
3067;DHT22;1544;48.834;9.194;2023-05-10T03:40:11;14.30;76.80
3067;DHT22;1544;48.834;9.194;2023-05-10T03:42:50;14.40;77.10
3067;DHT22;1544;48.834;9.194;2023-05-10T03:45:26;14.40;76.90
3067;DHT22;1544;48.834;9.194;2023-05-10T03:48:03;14.30;76.70
3067;DHT22;1544;48.834;9.194;2023-05-10T03:50:39;14.40;76.50
3067;DHT22;1544;48.834;9.194;2023-05-10T03:53:15;14.40;76.20
3067;DHT22;1544;48.834;9.194;2023-05-10T03:55:52;14.40;75.50
3067;DHT22;1544;48.834;9.194;2023-05-10T03:58:28;14.50;75.30
3067;DHT22;1544;48.834;9.194;2023-05-10T04:01:04;14.50;75.00
3067;DHT22;1544;48.834;9.194;2023-05-10T04:03:41;14.50;75.00
3067;DHT22;1544;48.834;9.194;2023-05-10T04:06:17;14.50;74.50
3067;DHT22;1544;48.834;9.194;2023-05-10T04:08:53;14.50;74.70
3067;DHT22;1544;48.834;9.194;2023-05-10T04:11:29;14.50;75.20
3067;DHT22;1544;48.834;9.194;2023-05-10T04:14:06;14.50;75.40
3067;DHT22;1544;48.834;9.194;2023-05-10T04:16:42;14.50;75.30
3067;DHT22;1544;48.834;9.194;2023-05-10T04:19:18;14.50;75.50
3067;DHT22;1544;48.834;9.194;2023-05-10T04:21:54;14.50;75.70
3067;DHT22;1544;48.834;9.194;2023-05-10T04:24:30;14.60;75.50
3067;DHT22;1544;48.834;9.194;2023-05-10T04:27:06;14.60;75.00
3067;DHT22;1544;48.834;9.194;2023-05-10T04:29:42;14.70;75.00
3067;DHT22;1544;48.834;9.194;2023-05-10T04:32:19;14.70;74.70
3067;DHT22;1544;48.834;9.194;2023-05-10T04:34:56;14.70;74.30
3067;DHT22;1544;48.834;9.194;2023-05-10T04:37:32;14.70;73.80
3067;DHT22;1544;48.834;9.194;2023-05-10T04:40:09;14.70;73.30
3067;DHT22;1544;48.834;9.194;2023-05-10T04:42:45;14.70;72.90
3067;DHT22;1544;48.834;9.194;2023-05-10T04:45:21;14.70;72.20
3067;DHT22;1544;48.834;9.194;2023-05-10T04:47:57;14.70;72.80
3067;DHT22;1544;48.834;9.194;2023-05-10T04:50:33;14.70;71.90
3067;DHT22;1544;48.834;9.194;2023-05-10T04:53:09;14.70;70.10
3067;DHT22;1544;48.834;9.194;2023-05-10T04:55:45;14.80;70.50
3067;DHT22;1544;48.834;9.194;2023-05-10T04:58:22;14.80;70.40
3067;DHT22;1544;48.834;9.194;2023-05-10T05:01:05;14.80;70.10
3067;DHT22;1544;48.834;9.194;2023-05-10T05:03:44;14.80;69.30
3067;DHT22;1544;48.834;9.194;2023-05-10T05:06:20;14.80;68.00
3067;DHT22;1544;48.834;9.194;2023-05-10T05:09:00;14.90;68.40
3067;DHT22;1544;48.834;9.194;2023-05-10T05:11:36;14.90;68.20
3067;DHT22;1544;48.834;9.194;2023-05-10T05:14:12;14.90;68.10
3067;DHT22;1544;48.834;9.194;2023-05-10T05:16:49;14.90;68.10
3067;DHT22;1544;48.834;9.194;2023-05-10T05:19:25;15.00;68.30
3067;DHT22;1544;48.834;9.194;2023-05-10T05:22:01;15.00;68.00
3067;DHT22;1544;48.834;9.194;2023-05-10T05:24:37;15.10;68.10
3067;DHT22;1544;48.834;9.194;2023-05-10T05:27:16;15.20;66.70
3067;DHT22;1544;48.834;9.194;2023-05-10T05:29:53;15.30;66.40
3067;DHT22;1544;48.834;9.194;2023-05-10T05:32:30;15.40;65.80
3067;DHT22;1544;48.834;9.194;2023-05-10T05:35:06;15.50;62.40
3067;DHT22;1544;48.834;9.194;2023-05-10T05:37:42;15.50;61.70
3067;DHT22;1544;48.834;9.194;2023-05-10T05:40:18;15.50;60.90
3067;DHT22;1544;48.834;9.194;2023-05-10T05:42:54;15.50;61.40
3067;DHT22;1544;48.834;9.194;2023-05-10T05:45:30;15.60;60.20
3067;DHT22;1544;48.834;9.194;2023-05-10T05:48:06;15.70;58.80
3067;DHT22;1544;48.834;9.194;2023-05-10T05:50:42;15.70;58.80
3067;DHT22;1544;48.834;9.194;2023-05-10T05:53:18;15.80;58.50
3067;DHT22;1544;48.834;9.194;2023-05-10T05:55:55;15.80;56.60
3067;DHT22;1544;48.834;9.194;2023-05-10T05:58:32;15.90;57.10
3067;DHT22;1544;48.834;9.194;2023-05-10T06:01:08;15.90;57.80
3067;DHT22;1544;48.834;9.194;2023-05-10T06:03:44;16.00;58.30
3067;DHT22;1544;48.834;9.194;2023-05-10T06:06:20;16.10;57.20
3067;DHT22;1544;48.834;9.194;2023-05-10T06:08:56;16.20;55.20
3067;DHT22;1544;48.834;9.194;2023-05-10T06:11:32;16.20;54.30
3067;DHT22;1544;48.834;9.194;2023-05-10T06:14:08;16.30;53.60
3067;DHT22;1544;48.834;9.194;2023-05-10T06:16:44;16.30;52.50
3067;DHT22;1544;48.834;9.194;2023-05-10T06:19:20;16.30;51.40
3067;DHT22;1544;48.834;9.194;2023-05-10T06:21:56;16.30;52.20
3067;DHT22;1544;48.834;9.194;2023-05-10T06:24:32;16.30;52.70
3067;DHT22;1544;48.834;9.194;2023-05-10T06:27:08;16.30;52.30
3067;DHT22;1544;48.834;9.194;2023-05-10T06:29:44;16.30;52.90
3067;DHT22;1544;48.834;9.194;2023-05-10T06:32:20;16.30;53.20
3067;DHT22;1544;48.834;9.194;2023-05-10T06:34:56;16.40;53.90
3067;DHT22;1544;48.834;9.194;2023-05-10T06:37:32;16.40;53.00
3067;DHT22;1544;48.834;9.194;2023-05-10T06:40:08;16.50;52.20
3067;DHT22;1544;48.834;9.194;2023-05-10T06:42:45;16.50;51.00
3067;DHT22;1544;48.834;9.194;2023-05-10T06:45:21;16.50;51.20
3067;DHT22;1544;48.834;9.194;2023-05-10T06:47:57;16.50;51.60
3067;DHT22;1544;48.834;9.194;2023-05-10T06:50:33;16.60;50.20
3067;DHT22;1544;48.834;9.194;2023-05-10T06:53:09;16.70;49.70
3067;DHT22;1544;48.834;9.194;2023-05-10T06:55:45;16.70;50.00
3067;DHT22;1544;48.834;9.194;2023-05-10T06:58:21;16.80;50.70
3067;DHT22;1544;48.834;9.194;2023-05-10T07:01:04;16.90;51.30
3067;DHT22;1544;48.834;9.194;2023-05-10T07:03:41;17.10;50.90
3067;DHT22;1544;48.834;9.194;2023-05-10T07:06:17;17.20;49.70
3067;DHT22;1544;48.834;9.194;2023-05-10T07:09:07;17.30;49.80
3067;DHT22;1544;48.834;9.194;2023-05-10T07:11:43;17.40;49.80
3067;DHT22;1544;48.834;9.194;2023-05-10T07:14:19;17.60;48.40
3067;DHT22;1544;48.834;9.194;2023-05-10T07:16:55;17.70;46.00
3067;DHT22;1544;48.834;9.194;2023-05-10T07:19:31;17.70;45.80
3067;DHT22;1544;48.834;9.194;2023-05-10T07:22:08;17.80;45.30
3067;DHT22;1544;48.834;9.194;2023-05-10T07:24:44;17.90;44.70
3067;DHT22;1544;48.834;9.194;2023-05-10T07:27:20;18.00;44.00
3067;DHT22;1544;48.834;9.194;2023-05-10T07:29:56;18.10;42.90
3067;DHT22;1544;48.834;9.194;2023-05-10T07:32:32;18.10;43.00
3067;DHT22;1544;48.834;9.194;2023-05-10T07:35:08;18.00;41.90
3067;DHT22;1544;48.834;9.194;2023-05-10T07:37:44;18.00;41.50
3067;DHT22;1544;48.834;9.194;2023-05-10T07:40:20;18.00;41.60
3067;DHT22;1544;48.834;9.194;2023-05-10T07:42:56;18.00;41.10
3067;DHT22;1544;48.834;9.194;2023-05-10T07:45:33;18.00;41.80
3067;DHT22;1544;48.834;9.194;2023-05-10T07:48:09;18.10;41.50
3067;DHT22;1544;48.834;9.194;2023-05-10T07:50:45;18.20;41.40
3067;DHT22;1544;48.834;9.194;2023-05-10T07:53:21;18.30;41.70
3067;DHT22;1544;48.834;9.194;2023-05-10T07:55:58;18.40;40.50
3067;DHT22;1544;48.834;9.194;2023-05-10T07:58:34;18.50;40.50
3067;DHT22;1544;48.834;9.194;2023-05-10T08:01:09;18.50;40.10
3067;DHT22;1544;48.834;9.194;2023-05-10T08:03:45;18.50;39.40
3067;DHT22;1544;48.834;9.194;2023-05-10T08:06:21;18.50;39.60
3067;DHT22;1544;48.834;9.194;2023-05-10T08:08:57;18.50;38.60
3067;DHT22;1544;48.834;9.194;2023-05-10T08:11:33;18.40;38.40
3067;DHT22;1544;48.834;9.194;2023-05-10T08:14:10;18.30;39.60
3067;DHT22;1544;48.834;9.194;2023-05-10T08:16:46;18.30;38.20
3067;DHT22;1544;48.834;9.194;2023-05-10T08:19:22;18.20;38.20
3067;DHT22;1544;48.834;9.194;2023-05-10T08:21:58;18.10;38.70
3067;DHT22;1544;48.834;9.194;2023-05-10T08:24:34;18.10;38.40
3067;DHT22;1544;48.834;9.194;2023-05-10T08:27:13;18.20;38.40
3067;DHT22;1544;48.834;9.194;2023-05-10T08:29:49;18.30;38.50
3067;DHT22;1544;48.834;9.194;2023-05-10T08:32:25;18.30;38.60
3067;DHT22;1544;48.834;9.194;2023-05-10T08:35:01;18.30;38.50
3067;DHT22;1544;48.834;9.194;2023-05-10T08:37:37;18.40;37.40
3067;DHT22;1544;48.834;9.194;2023-05-10T08:40:14;18.30;36.70
3067;DHT22;1544;48.834;9.194;2023-05-10T08:43:06;18.30;36.50
3067;DHT22;1544;48.834;9.194;2023-05-10T08:45:45;18.10;37.00
3067;DHT22;1544;48.834;9.194;2023-05-10T08:48:24;18.10;37.20
3067;DHT22;1544;48.834;9.194;2023-05-10T08:51:00;18.10;37.00
3067;DHT22;1544;48.834;9.194;2023-05-10T08:53:37;18.20;37.30
3067;DHT22;1544;48.834;9.194;2023-05-10T08:56:15;18.40;37.80
3067;DHT22;1544;48.834;9.194;2023-05-10T08:58:53;18.70;37.20
3067;DHT22;1544;48.834;9.194;2023-05-10T09:01:31;18.90;37.00
3067;DHT22;1544;48.834;9.194;2023-05-10T09:04:08;18.90;36.30
3067;DHT22;1544;48.834;9.194;2023-05-10T09:06:44;19.00;35.70
3067;DHT22;1544;48.834;9.194;2023-05-10T09:09:21;19.00;36.00
3067;DHT22;1544;48.834;9.194;2023-05-10T09:11:57;19.00;36.60
3067;DHT22;1544;48.834;9.194;2023-05-10T09:14:35;19.10;36.60
3067;DHT22;1544;48.834;9.194;2023-05-10T09:17:11;19.20;36.40
3067;DHT22;1544;48.834;9.194;2023-05-10T09:19:47;19.40;36.10
3067;DHT22;1544;48.834;9.194;2023-05-10T09:22:23;19.50;35.80
3067;DHT22;1544;48.834;9.194;2023-05-10T09:27:49;19.60;35.10
3067;DHT22;1544;48.834;9.194;2023-05-10T09:30:30;19.60;35.10
3067;DHT22;1544;48.834;9.194;2023-05-10T09:33:06;19.50;35.40
3067;DHT22;1544;48.834;9.194;2023-05-10T09:35:42;19.60;35.30
3067;DHT22;1544;48.834;9.194;2023-05-10T09:38:18;19.50;34.90
3067;DHT22;1544;48.834;9.194;2023-05-10T09:40:54;19.60;34.90
3067;DHT22;1544;48.834;9.194;2023-05-10T09:43:37;19.80;34.80
3067;DHT22;1544;48.834;9.194;2023-05-10T09:46:15;19.90;34.00
3067;DHT22;1544;48.834;9.194;2023-05-10T09:48:51;20.00;34.00
3067;DHT22;1544;48.834;9.194;2023-05-10T09:51:27;19.90;33.60
3067;DHT22;1544;48.834;9.194;2023-05-10T09:54:15;19.80;34.10
3067;DHT22;1544;48.834;9.194;2023-05-10T09:56:51;19.90;34.50
3067;DHT22;1544;48.834;9.194;2023-05-10T09:59:28;19.80;34.20
3067;DHT22;1544;48.834;9.194;2023-05-10T10:02:05;19.70;34.90
3067;DHT22;1544;48.834;9.194;2023-05-10T10:04:41;19.60;35.20
3067;DHT22;1544;48.834;9.194;2023-05-10T10:07:22;19.50;35.10
3067;DHT22;1544;48.834;9.194;2023-05-10T10:10:00;19.30;35.60
3067;DHT22;1544;48.834;9.194;2023-05-10T10:12:36;19.40;35.70
3067;DHT22;1544;48.834;9.194;2023-05-10T10:15:13;19.50;34.90
3067;DHT22;1544;48.834;9.194;2023-05-10T10:17:53;19.40;35.00
3067;DHT22;1544;48.834;9.194;2023-05-10T10:20:29;19.40;35.20
3067;DHT22;1544;48.834;9.194;2023-05-10T10:23:05;19.40;34.90
3067;DHT22;1544;48.834;9.194;2023-05-10T10:25:41;19.40;35.00
3067;DHT22;1544;48.834;9.194;2023-05-10T10:28:22;19.30;34.90
3067;DHT22;1544;48.834;9.194;2023-05-10T10:31:33;19.30;35.10
3067;DHT22;1544;48.834;9.194;2023-05-10T10:34:32;19.30;35.40
3067;DHT22;1544;48.834;9.194;2023-05-10T10:37:08;19.50;35.30
3067;DHT22;1544;48.834;9.194;2023-05-10T10:39:44;19.70;35.30
3067;DHT22;1544;48.834;9.194;2023-05-10T10:42:46;19.80;35.10
3067;DHT22;1544;48.834;9.194;2023-05-10T10:45:23;19.80;34.90
3067;DHT22;1544;48.834;9.194;2023-05-10T10:48:20;19.70;34.90
3067;DHT22;1544;48.834;9.194;2023-05-10T10:50:58;19.70;34.10
3067;DHT22;1544;48.834;9.194;2023-05-10T10:53:34;19.70;34.00
3067;DHT22;1544;48.834;9.194;2023-05-10T10:56:11;19.60;34.80
3067;DHT22;1544;48.834;9.194;2023-05-10T10:58:51;19.80;33.90
3067;DHT22;1544;48.834;9.194;2023-05-10T11:01:34;19.80;33.10
3067;DHT22;1544;48.834;9.194;2023-05-10T11:06:47;19.70;32.10
3067;DHT22;1544;48.834;9.194;2023-05-10T11:09:24;19.60;32.20
3067;DHT22;1544;48.834;9.194;2023-05-10T11:12:08;19.60;31.30
3067;DHT22;1544;48.834;9.194;2023-05-10T11:14:50;19.60;31.60
3067;DHT22;1544;48.834;9.194;2023-05-10T11:17:29;19.50;31.40
3067;DHT22;1544;48.834;9.194;2023-05-10T11:20:10;19.60;31.90
3067;DHT22;1544;48.834;9.194;2023-05-10T11:22:50;19.70;32.00
3067;DHT22;1544;48.834;9.194;2023-05-10T11:25:27;19.70;31.80
3067;DHT22;1544;48.834;9.194;2023-05-10T11:28:04;19.70;31.90
3067;DHT22;1544;48.834;9.194;2023-05-10T11:30:43;19.80;31.60
3067;DHT22;1544;48.834;9.194;2023-05-10T11:33:19;19.70;31.40
3067;DHT22;1544;48.834;9.194;2023-05-10T11:35:55;19.70;32.00
3067;DHT22;1544;48.834;9.194;2023-05-10T11:38:32;19.90;31.40
3067;DHT22;1544;48.834;9.194;2023-05-10T11:41:09;19.90;31.30
3067;DHT22;1544;48.834;9.194;2023-05-10T11:43:48;19.90;31.60
3067;DHT22;1544;48.834;9.194;2023-05-10T11:46:27;19.90;32.00
3067;DHT22;1544;48.834;9.194;2023-05-10T11:49:07;19.90;31.80
3067;DHT22;1544;48.834;9.194;2023-05-10T11:51:43;20.00;31.50
3067;DHT22;1544;48.834;9.194;2023-05-10T11:54:19;20.00;31.00
3067;DHT22;1544;48.834;9.194;2023-05-10T11:56:55;20.00;30.80
3067;DHT22;1544;48.834;9.194;2023-05-10T11:59:31;20.00;30.80
3067;DHT22;1544;48.834;9.194;2023-05-10T12:02:07;20.00;30.80
3067;DHT22;1544;48.834;9.194;2023-05-10T12:04:43;19.90;30.80
3067;DHT22;1544;48.834;9.194;2023-05-10T12:07:19;19.80;31.30
3067;DHT22;1544;48.834;9.194;2023-05-10T12:10:12;19.90;31.50
3067;DHT22;1544;48.834;9.194;2023-05-10T12:12:53;19.80;31.30
3067;DHT22;1544;48.834;9.194;2023-05-10T12:15:29;19.60;31.50
3067;DHT22;1544;48.834;9.194;2023-05-10T12:18:05;19.50;31.60
3067;DHT22;1544;48.834;9.194;2023-05-10T12:20:41;19.30;31.70
3067;DHT22;1544;48.834;9.194;2023-05-10T12:23:18;19.20;32.10
3067;DHT22;1544;48.834;9.194;2023-05-10T12:26:02;19.10;32.30
3067;DHT22;1544;48.834;9.194;2023-05-10T12:28:39;19.10;32.00
3067;DHT22;1544;48.834;9.194;2023-05-10T12:31:15;19.10;31.40
3067;DHT22;1544;48.834;9.194;2023-05-10T12:33:51;19.00;30.60
3067;DHT22;1544;48.834;9.194;2023-05-10T12:36:28;19.00;30.90
3067;DHT22;1544;48.834;9.194;2023-05-10T12:39:04;19.20;31.30
3067;DHT22;1544;48.834;9.194;2023-05-10T12:41:40;19.40;30.80
3067;DHT22;1544;48.834;9.194;2023-05-10T12:44:18;19.60;30.30
3067;DHT22;1544;48.834;9.194;2023-05-10T12:46:54;19.90;30.00
3067;DHT22;1544;48.834;9.194;2023-05-10T12:49:30;20.00;30.10
3067;DHT22;1544;48.834;9.194;2023-05-10T12:52:06;20.20;30.10
3067;DHT22;1544;48.834;9.194;2023-05-10T12:54:42;20.10;29.90
3067;DHT22;1544;48.834;9.194;2023-05-10T12:57:20;20.10;30.30
3067;DHT22;1544;48.834;9.194;2023-05-10T12:59:56;20.20;30.20
3067;DHT22;1544;48.834;9.194;2023-05-10T13:02:32;20.30;30.00
3067;DHT22;1544;48.834;9.194;2023-05-10T13:05:10;20.20;29.70
3067;DHT22;1544;48.834;9.194;2023-05-10T13:07:46;20.20;30.00
3067;DHT22;1544;48.834;9.194;2023-05-10T13:10:22;20.10;30.00
3067;DHT22;1544;48.834;9.194;2023-05-10T13:12:59;20.30;30.40
3067;DHT22;1544;48.834;9.194;2023-05-10T13:15:35;20.50;30.00
3067;DHT22;1544;48.834;9.194;2023-05-10T13:18:11;20.50;30.20
3067;DHT22;1544;48.834;9.194;2023-05-10T13:20:47;20.40;30.00
3067;DHT22;1544;48.834;9.194;2023-05-10T13:23:25;20.10;30.10
3067;DHT22;1544;48.834;9.194;2023-05-10T13:26:01;20.00;30.00
3067;DHT22;1544;48.834;9.194;2023-05-10T13:28:37;20.00;30.10
3067;DHT22;1544;48.834;9.194;2023-05-10T13:31:14;19.80;29.70
3067;DHT22;1544;48.834;9.194;2023-05-10T13:33:50;19.70;30.10
3067;DHT22;1544;48.834;9.194;2023-05-10T13:36:27;19.60;30.00
3067;DHT22;1544;48.834;9.194;2023-05-10T13:39:03;19.50;30.30
3067;DHT22;1544;48.834;9.194;2023-05-10T13:41:40;19.40;30.10
3067;DHT22;1544;48.834;9.194;2023-05-10T13:44:16;19.40;30.40
3067;DHT22;1544;48.834;9.194;2023-05-10T13:46:52;19.30;30.40
3067;DHT22;1544;48.834;9.194;2023-05-10T13:49:28;19.40;30.40
3067;DHT22;1544;48.834;9.194;2023-05-10T13:52:04;19.50;30.50
3067;DHT22;1544;48.834;9.194;2023-05-10T13:54:42;19.60;30.50
3067;DHT22;1544;48.834;9.194;2023-05-10T13:57:21;19.70;30.40
3067;DHT22;1544;48.834;9.194;2023-05-10T13:59:58;19.70;30.20
3067;DHT22;1544;48.834;9.194;2023-05-10T14:02:34;19.90;30.50
3067;DHT22;1544;48.834;9.194;2023-05-10T14:05:11;20.00;30.00
3067;DHT22;1544;48.834;9.194;2023-05-10T14:07:47;20.10;29.50
3067;DHT22;1544;48.834;9.194;2023-05-10T14:10:23;20.00;29.40
3067;DHT22;1544;48.834;9.194;2023-05-10T14:12:59;19.90;29.30
3067;DHT22;1544;48.834;9.194;2023-05-10T14:15:35;19.70;29.40
3067;DHT22;1544;48.834;9.194;2023-05-10T14:18:11;19.60;29.20
3067;DHT22;1544;48.834;9.194;2023-05-10T14:20:47;19.50;29.00
3067;DHT22;1544;48.834;9.194;2023-05-10T14:23:23;19.50;29.00
3067;DHT22;1544;48.834;9.194;2023-05-10T14:26:00;19.60;29.10
3067;DHT22;1544;48.834;9.194;2023-05-10T14:28:39;19.90;29.30
3067;DHT22;1544;48.834;9.194;2023-05-10T14:31:15;20.10;29.10
3067;DHT22;1544;48.834;9.194;2023-05-10T14:33:53;20.30;29.50
3067;DHT22;1544;48.834;9.194;2023-05-10T14:36:29;20.30;28.60
3067;DHT22;1544;48.834;9.194;2023-05-10T14:39:05;20.30;28.50
3067;DHT22;1544;48.834;9.194;2023-05-10T14:41:42;20.20;28.40
3067;DHT22;1544;48.834;9.194;2023-05-10T14:44:20;20.20;28.70
3067;DHT22;1544;48.834;9.194;2023-05-10T14:46:56;20.20;28.90
3067;DHT22;1544;48.834;9.194;2023-05-10T14:49:32;20.20;29.00
3067;DHT22;1544;48.834;9.194;2023-05-10T14:52:09;20.30;29.40
3067;DHT22;1544;48.834;9.194;2023-05-10T14:54:47;20.40;29.50
3067;DHT22;1544;48.834;9.194;2023-05-10T14:57:23;20.50;29.40
3067;DHT22;1544;48.834;9.194;2023-05-10T14:59:59;20.80;29.30
3067;DHT22;1544;48.834;9.194;2023-05-10T15:02:36;20.70;29.20
3067;DHT22;1544;48.834;9.194;2023-05-10T15:05:12;20.70;29.40
3067;DHT22;1544;48.834;9.194;2023-05-10T15:07:49;20.80;29.70
3067;DHT22;1544;48.834;9.194;2023-05-10T15:10:25;20.90;29.40
3067;DHT22;1544;48.834;9.194;2023-05-10T15:13:03;20.90;29.30
3067;DHT22;1544;48.834;9.194;2023-05-10T15:15:39;20.90;29.50
3067;DHT22;1544;48.834;9.194;2023-05-10T15:18:15;20.90;29.50
3067;DHT22;1544;48.834;9.194;2023-05-10T15:20:52;20.90;29.20
3067;DHT22;1544;48.834;9.194;2023-05-10T15:23:28;20.80;29.50
3067;DHT22;1544;48.834;9.194;2023-05-10T15:26:05;20.80;29.50
3067;DHT22;1544;48.834;9.194;2023-05-10T15:28:41;20.90;29.50
3067;DHT22;1544;48.834;9.194;2023-05-10T15:31:17;20.90;29.60
3067;DHT22;1544;48.834;9.194;2023-05-10T15:33:57;21.00;29.70
3067;DHT22;1544;48.834;9.194;2023-05-10T15:36:36;21.00;29.40
3067;DHT22;1544;48.834;9.194;2023-05-10T15:39:12;21.10;29.60
3067;DHT22;1544;48.834;9.194;2023-05-10T15:41:48;21.10;29.40
3067;DHT22;1544;48.834;9.194;2023-05-10T15:44:24;21.10;29.10
3067;DHT22;1544;48.834;9.194;2023-05-10T15:47:01;21.00;29.20
3067;DHT22;1544;48.834;9.194;2023-05-10T15:49:38;20.90;29.40
3067;DHT22;1544;48.834;9.194;2023-05-10T15:52:14;21.00;29.60
3067;DHT22;1544;48.834;9.194;2023-05-10T15:54:50;21.10;29.70
3067;DHT22;1544;48.834;9.194;2023-05-10T15:57:26;21.10;29.60
3067;DHT22;1544;48.834;9.194;2023-05-10T16:00:02;21.20;29.70
3067;DHT22;1544;48.834;9.194;2023-05-10T16:02:46;21.10;29.70
3067;DHT22;1544;48.834;9.194;2023-05-10T16:05:22;21.20;29.90
3067;DHT22;1544;48.834;9.194;2023-05-10T16:08:00;21.30;30.00
3067;DHT22;1544;48.834;9.194;2023-05-10T16:10:36;21.20;29.70
3067;DHT22;1544;48.834;9.194;2023-05-10T16:13:12;21.20;29.90
3067;DHT22;1544;48.834;9.194;2023-05-10T16:15:49;21.10;30.10
3067;DHT22;1544;48.834;9.194;2023-05-10T16:18:25;21.10;29.40
3067;DHT22;1544;48.834;9.194;2023-05-10T16:21:01;20.90;29.30
3067;DHT22;1544;48.834;9.194;2023-05-10T16:23:38;20.90;29.60
3067;DHT22;1544;48.834;9.194;2023-05-10T16:26:14;20.80;29.60
3067;DHT22;1544;48.834;9.194;2023-05-10T16:28:50;20.80;29.80
3067;DHT22;1544;48.834;9.194;2023-05-10T16:31:26;20.70;30.00
3067;DHT22;1544;48.834;9.194;2023-05-10T16:34:02;20.70;30.30
3067;DHT22;1544;48.834;9.194;2023-05-10T16:36:38;20.70;30.30
3067;DHT22;1544;48.834;9.194;2023-05-10T16:39:14;20.60;29.50
3067;DHT22;1544;48.834;9.194;2023-05-10T16:41:51;20.50;29.40
3067;DHT22;1544;48.834;9.194;2023-05-10T16:44:27;20.30;29.40
3067;DHT22;1544;48.834;9.194;2023-05-10T16:47:03;20.10;29.60
3067;DHT22;1544;48.834;9.194;2023-05-10T16:49:39;20.00;29.60
3067;DHT22;1544;48.834;9.194;2023-05-10T16:52:15;19.90;29.60
3067;DHT22;1544;48.834;9.194;2023-05-10T16:54:53;19.80;29.80
3067;DHT22;1544;48.834;9.194;2023-05-10T16:57:29;19.70;29.80
3067;DHT22;1544;48.834;9.194;2023-05-10T17:00:08;19.80;29.80
3067;DHT22;1544;48.834;9.194;2023-05-10T17:02:46;19.60;29.90
3067;DHT22;1544;48.834;9.194;2023-05-10T17:05:23;19.50;30.00
3067;DHT22;1544;48.834;9.194;2023-05-10T17:07:59;19.40;30.30
3067;DHT22;1544;48.834;9.194;2023-05-10T17:10:38;19.30;30.50
3067;DHT22;1544;48.834;9.194;2023-05-10T17:13:14;19.20;30.70
3067;DHT22;1544;48.834;9.194;2023-05-10T17:15:51;19.20;30.80
3067;DHT22;1544;48.834;9.194;2023-05-10T17:18:27;19.20;30.90
3067;DHT22;1544;48.834;9.194;2023-05-10T17:21:03;19.00;30.80
3067;DHT22;1544;48.834;9.194;2023-05-10T17:23:39;19.00;31.00